Skip Navigation Links Skip Navigation Links

Current Weather

Porter County Muni, Valparaiso, Ind.

For information only: do not use for flight planning or navigation.
Latest weather
Observation time Friday, May 29, 2020 5:56 PM CDT
Local time Friday, May 29, 2020 6:24 PM CDT
Flight conditions Visual Meteorological Conditions
Winds
Wind direction North (360°)
Wind speed 9 mph
Visibility 10 mi.
Sky condition
Ceiling unlimited
Sky clear
Temperature 69°F
Dewpoint 52°F
Altimeter 30.00 in.Hg
Derived measurements
Relative humidity 55%
Density altitude 1523 ft.
Sea-level pressure 30.00 in.Hg
Remarks
Fully automated report.
Automated weather observing station with precipitation discriminator.
METAR KVPZ 292256Z AUTO 36008KT 10SM CLR 21/11 A3000 RMK AO2 SLP158 T02060111

Settings

Location code

InnerDrive.Weather 4.0.6770.0 Release CLR 4.0.30319.42000
Copyright ©2018 Inner Drive Technology. All rights reserved. Portions Copyright ©1986-2018 David Braverman.

Find weather

Site navigation


Skip Navigation Links

Place info

Page info

PayPal - The safer, easier way to pay online!

Return home.

Copyright ©2020 Inner Drive Technology. Purveyors of fine, hand-crafted computer software. Page printed 2020-05-29T23:24:38 UTC.